createdAt,value
2019-05-13T00:00:25.360Z,86.66
2019-05-13T00:04:27.905Z,86.50
2019-05-13T00:08:30.125Z,86.56
2019-05-13T00:12:32.221Z,86.42
2019-05-13T00:16:34.458Z,86.29
2019-05-13T00:20:36.837Z,86.50
2019-05-13T00:24:38.918Z,86.50
2019-05-13T00:28:41.208Z,86.45
2019-05-13T00:32:44.647Z,86.48
2019-05-13T00:36:47.147Z,86.54
2019-05-13T00:40:49.348Z,86.38
2019-05-13T00:44:53.232Z,86.16
2019-05-13T00:48:55.349Z,86.35
2019-05-13T00:52:57.759Z,86.65
2019-05-13T00:57:00.004Z,86.96
2019-05-13T01:01:03.592Z,87.23
2019-05-13T01:05:06.790Z,87.43
2019-05-13T01:09:09.577Z,87.48
2019-05-13T01:13:13.617Z,87.67
2019-05-13T01:17:15.906Z,87.55
2019-05-13T01:21:18.010Z,87.75
2019-05-13T01:25:20.228Z,87.93
2019-05-13T01:29:23.812Z,88.08
2019-05-13T01:33:26.329Z,88.29
2019-05-13T01:37:41.948Z,88.54
2019-05-13T01:41:33.380Z,88.71
2019-05-13T01:45:35.825Z,88.36
2019-05-13T01:49:38.015Z,87.79
2019-05-13T01:53:40.147Z,87.72
2019-05-13T01:57:44.348Z,87.60
2019-05-13T02:01:46.190Z,87.41
2019-05-13T02:05:48.352Z,87.18
2019-05-13T02:09:52.945Z,86.94
2019-05-13T02:13:54.813Z,86.61
2019-05-13T02:17:56.934Z,86.22
2019-05-13T02:21:59.111Z,85.70
2019-05-13T02:26:01.355Z,85.66
2019-05-13T02:30:05.468Z,85.52
2019-05-13T02:34:07.465Z,85.49
2019-05-13T02:38:19.549Z,85.32
2019-05-13T02:42:13.759Z,85.53
2019-05-13T02:46:15.965Z,85.30
2019-05-13T02:50:18.242Z,85.09
2019-05-13T02:54:22.884Z,85.38
2019-05-13T02:58:25.582Z,85.30
2019-05-13T03:02:27.920Z,85.02
2019-05-13T03:06:33.219Z,84.82
2019-05-13T03:10:34.235Z,84.99
2019-05-13T03:14:36.323Z,84.62
2019-05-13T03:18:38.633Z,84.46
2019-05-13T03:22:43.366Z,84.64
2019-05-13T03:26:44.856Z,84.40
2019-05-13T03:30:47.260Z,84.17
2019-05-13T03:34:55.161Z,84.11
2019-05-13T03:39:05.122Z,83.56
2019-05-13T03:43:02.665Z,83.60
2019-05-13T03:47:05.202Z,83.11
2019-05-13T03:51:07.367Z,83.43
2019-05-13T03:55:12.770Z,82.63
2019-05-13T03:59:14.365Z,81.62
2019-05-13T04:03:16.839Z,81.72
2019-05-13T04:07:19.125Z,82.08
2019-05-13T04:11:22.574Z,81.78
2019-05-13T04:15:24.999Z,81.31
2019-05-13T04:19:27.754Z,81.58
2019-05-13T04:23:32.287Z,81.28
2019-05-13T04:27:33.992Z,80.20
2019-05-13T04:31:36.315Z,81.04
2019-05-13T04:35:38.853Z,81.03
2019-05-13T04:39:50.012Z,80.82
2019-05-13T04:43:45.350Z,81.39
2019-05-13T04:47:47.640Z,80.27
2019-05-13T04:51:52.306Z,80.28
2019-05-13T04:55:54.165Z,80.19
2019-05-13T04:59:56.445Z,80.28
2019-05-13T05:04:11.707Z,79.95
2019-05-13T05:08:48.138Z,78.64
2019-05-13T05:13:12.798Z,79.14
2019-05-13T05:17:53.081Z,78.48
2019-05-13T05:22:13.271Z,78.09
2019-05-13T05:26:53.785Z,78.39
2019-05-13T05:31:34.976Z,77.69
2019-05-13T05:36:13.823Z,77.92
2019-05-13T05:40:30.968Z,77.26
2019-05-13T05:44:24.833Z,76.38
2019-05-13T05:48:31.376Z,76.21
2019-05-13T05:52:34.888Z,76.96
2019-05-13T05:56:41.475Z,76.11
2019-05-13T06:00:44.660Z,75.03
2019-05-13T06:04:51.999Z,74.51
2019-05-13T06:08:54.293Z,74.28
2019-05-13T06:12:56.993Z,73.21
2019-05-13T06:16:59.122Z,73.50
2019-05-13T06:21:01.817Z,72.50
2019-05-13T06:25:04.096Z,71.94
2019-05-13T06:29:06.572Z,72.05
2019-05-13T06:33:08.786Z,70.29
2019-05-13T06:37:11.549Z,69.99
2019-05-13T06:41:14.824Z,70.04
2019-05-13T06:45:17.358Z,69.41
2019-05-13T06:49:21.499Z,69.36
2019-05-13T06:53:23.196Z,67.36
2019-05-13T06:57:25.170Z,66.56
2019-05-13T07:01:28.473Z,66.56
2019-05-13T07:05:31.819Z,65.62
2019-05-13T07:09:33.794Z,66.20
2019-05-13T07:13:35.955Z,63.92
2019-05-13T07:17:38.166Z,63.13
2019-05-13T07:21:41.735Z,63.04
2019-05-13T07:25:44.214Z,64.61
2019-05-13T07:29:46.069Z,62.69
2019-05-13T07:33:48.193Z,63.45
2019-05-13T07:37:51.750Z,60.81
2019-05-13T07:41:54.065Z,60.82
2019-05-13T07:45:56.291Z,59.71
2019-05-13T07:49:58.500Z,58.03
2019-05-13T07:54:02.188Z,57.99
2019-05-13T07:58:04.433Z,58.00
2019-05-13T08:02:06.476Z,56.57
2019-05-13T08:06:08.465Z,55.67
2019-05-13T08:10:11.665Z,55.26
2019-05-13T08:14:15.054Z,53.12
2019-05-13T08:18:17.595Z,51.80
2019-05-13T08:22:22.091Z,53.07
2019-05-13T08:26:23.265Z,53.16
2019-05-13T08:30:25.723Z,51.89
2019-05-13T08:34:27.958Z,54.96
2019-05-13T08:38:31.874Z,54.72
2019-05-13T08:42:33.764Z,53.86
2019-05-13T08:46:36.071Z,53.00
2019-05-13T08:50:38.235Z,52.23
2019-05-13T08:54:41.858Z,49.85
2019-05-13T08:58:44.122Z,49.71
2019-05-13T09:02:46.234Z,48.29
2019-05-13T09:06:48.577Z,48.47
2019-05-13T09:10:52.043Z,47.76
2019-05-13T09:14:54.651Z,46.81
2019-05-13T09:18:56.681Z,46.02
2019-05-13T09:23:02.026Z,45.91
2019-05-13T09:27:04.113Z,46.44
2019-05-13T09:31:06.248Z,46.36
2019-05-13T09:35:08.596Z,45.81
2019-05-13T09:39:12.610Z,44.31
2019-05-13T09:43:14.598Z,44.98
2019-05-13T09:47:16.683Z,46.08
2019-05-13T09:51:18.781Z,43.84
2019-05-13T09:55:26.389Z,42.83
2019-05-13T09:59:24.969Z,42.25
2019-05-13T10:03:29.671Z,42.50
2019-05-13T10:07:31.889Z,44.32
2019-05-13T10:11:34.114Z,42.88
2019-05-13T10:15:36.390Z,44.28
2019-05-13T10:19:38.631Z,44.41
2019-05-13T10:23:41.776Z,43.65
2019-05-13T10:27:44.434Z,43.79
2019-05-13T10:31:46.778Z,43.57
2019-05-13T10:35:52.314Z,43.52
2019-05-13T10:39:56.230Z,42.50
2019-05-13T10:43:58.393Z,43.49
2019-05-13T10:48:02.808Z,43.63
2019-05-13T10:52:04.609Z,42.71
2019-05-13T10:56:06.842Z,41.55
2019-05-13T11:00:12.228Z,41.21
2019-05-13T11:04:14.110Z,41.84
2019-05-13T11:08:16.104Z,42.23
2019-05-13T11:12:18.279Z,42.21
2019-05-13T11:16:22.579Z,42.15
2019-05-13T11:20:24.777Z,43.02
2019-05-13T11:24:27.069Z,44.64
2019-05-13T11:28:29.625Z,42.99
2019-05-13T11:32:33.029Z,42.85
2019-05-13T11:36:35.339Z,42.55
2019-05-13T11:40:37.698Z,43.75
2019-05-13T11:44:40.064Z,42.90
2019-05-13T11:48:43.793Z,42.59
2019-05-13T11:52:45.938Z,42.01
2019-05-13T11:56:50.461Z,43.71
2019-05-13T12:00:58.110Z,44.14
2019-05-13T12:05:03.736Z,42.36
2019-05-13T12:09:06.044Z,41.90
2019-05-13T12:13:08.229Z,40.38
2019-05-13T12:17:14.157Z,40.27
2019-05-13T12:21:14.416Z,41.99
2019-05-13T12:25:16.652Z,41.05
2019-05-13T12:29:19.473Z,38.16
2019-05-13T12:33:22.694Z,39.46
2019-05-13T12:37:25.299Z,40.86
2019-05-13T12:41:28.400Z,37.37
2019-05-13T12:45:30.814Z,37.78
2019-05-13T12:49:36.688Z,40.83
2019-05-13T12:53:37.389Z,36.66
2019-05-13T12:57:39.664Z,37.70
2019-05-13T13:01:41.771Z,37.75
2019-05-13T13:05:44.249Z,37.85
2019-05-13T13:09:46.290Z,36.73
2019-05-13T13:13:59.506Z,37.51
2019-05-13T13:17:54.023Z,37.98
2019-05-13T13:22:03.295Z,38.93
2019-05-13T13:26:02.990Z,37.85
2019-05-13T13:30:08.405Z,37.73
2019-05-13T13:34:13.573Z,38.40
2019-05-13T13:38:14.132Z,38.60
2019-05-13T13:42:16.683Z,38.90
2019-05-13T13:46:33.918Z,39.74
2019-05-13T13:50:24.637Z,38.48
2019-05-13T13:54:26.766Z,38.30
2019-05-13T13:58:29.443Z,38.79
2019-05-13T14:02:37.021Z,37.68
2019-05-13T14:10:41.999Z,38.21
2019-05-13T14:14:44.144Z,39.50
2019-05-13T14:18:46.449Z,39.14
2019-05-13T14:22:57.256Z,39.48
2019-05-13T14:26:55.132Z,40.37
2019-05-13T14:30:57.647Z,39.71
2019-05-13T14:35:01.724Z,39.08
2019-05-13T14:39:04.915Z,38.22
2019-05-13T14:43:08.995Z,38.42
2019-05-13T14:47:22.726Z,37.99
2019-05-13T14:51:15.149Z,38.35
2019-05-13T14:55:17.277Z,37.46
2019-05-13T14:59:21.874Z,38.90
2019-05-13T15:03:23.703Z,37.46
2019-05-13T15:07:25.844Z,37.25
2019-05-13T15:11:28.545Z,38.38
2019-05-13T15:15:31.677Z,38.69
2019-05-13T15:19:34.130Z,37.58
2019-05-13T15:23:36.370Z,38.47
2019-05-13T15:27:41.334Z,38.11
2019-05-13T15:31:43.081Z,38.48
2019-05-13T15:35:45.307Z,38.40
2019-05-13T15:39:47.656Z,38.36
2019-05-13T15:43:51.960Z,38.36
2019-05-13T15:47:54.229Z,39.98
2019-05-13T15:51:56.377Z,39.38
2019-05-13T15:55:58.495Z,39.42
2019-05-13T16:00:01.943Z,39.35
2019-05-13T16:04:04.502Z,40.13
2019-05-13T16:08:06.673Z,40.31
2019-05-13T16:12:08.994Z,40.72
2019-05-13T16:16:12.192Z,41.49
2019-05-13T16:20:14.418Z,41.79
2019-05-13T16:24:16.664Z,42.09
2019-05-13T16:28:18.933Z,42.43
2019-05-13T16:32:22.747Z,42.47
2019-05-13T16:36:25.137Z,43.12
2019-05-13T16:40:27.259Z,44.71
2019-05-13T16:44:31.822Z,43.57
2019-05-13T16:48:33.837Z,43.49
2019-05-13T16:52:36.152Z,43.73
2019-05-13T16:56:38.357Z,44.69
2019-05-13T17:00:42.466Z,44.06
2019-05-13T17:04:44.499Z,43.81
2019-05-13T17:08:46.760Z,42.97
2019-05-13T17:12:49.067Z,44.13
2019-05-13T17:16:51.872Z,43.91
2019-05-13T17:20:54.162Z,43.39
2019-05-13T17:24:56.466Z,44.40
2019-05-13T17:28:58.697Z,44.67
2019-05-13T17:33:02.273Z,45.62
2019-05-13T17:37:04.827Z,45.82
2019-05-13T17:41:07.151Z,45.71
2019-05-13T17:45:11.472Z,46.30
2019-05-13T17:49:14.041Z,46.17
2019-05-13T17:53:16.085Z,46.30
2019-05-13T17:57:18.424Z,46.02
2019-05-13T18:01:21.217Z,46.64
2019-05-13T18:05:23.685Z,46.54
2019-05-13T18:09:25.807Z,46.06
2019-05-13T18:13:28.126Z,46.80
2019-05-13T18:17:31.186Z,46.85
2019-05-13T18:21:34.458Z,47.97
2019-05-13T18:25:36.615Z,47.47
2019-05-13T18:29:38.938Z,48.07
2019-05-13T18:33:42.426Z,49.33
2019-05-13T18:37:44.624Z,49.23
2019-05-13T18:41:46.828Z,48.90
2019-05-13T18:45:48.898Z,50.00
2019-05-13T18:49:52.321Z,49.29
2019-05-13T18:53:54.516Z,49.92
2019-05-13T18:57:57.729Z,51.74
2019-05-13T19:02:01.477Z,51.16
2019-05-13T19:06:04.809Z,51.94
2019-05-13T19:10:07.858Z,54.08
2019-05-13T19:14:12.269Z,57.23
2019-05-13T19:18:14.076Z,59.76
2019-05-13T19:22:16.217Z,59.08
2019-05-13T19:26:18.531Z,60.83
2019-05-13T19:30:21.285Z,61.72
2019-05-13T19:34:23.728Z,61.37
2019-05-13T19:38:25.818Z,62.11
2019-05-13T19:42:28.072Z,63.19
2019-05-13T19:46:31.462Z,64.08
2019-05-13T19:50:33.819Z,64.59
2019-05-13T19:54:36.114Z,65.36
2019-05-13T19:58:38.445Z,65.32
2019-05-13T20:02:42.166Z,65.14
2019-05-13T20:06:44.619Z,65.58
2019-05-13T20:10:46.780Z,66.13
2019-05-13T20:14:48.882Z,66.22
2019-05-13T20:18:51.807Z,66.36
2019-05-13T20:22:54.758Z,66.77
2019-05-13T20:26:56.919Z,66.50
2019-05-13T20:31:01.649Z,65.93
2019-05-13T20:35:03.227Z,65.28
2019-05-13T20:39:06.523Z,63.08
2019-05-13T20:43:08.790Z,62.82
2019-05-13T20:47:10.912Z,63.57
2019-05-13T20:51:13.063Z,63.11
2019-05-13T20:55:16.518Z,63.51
2019-05-13T20:59:21.336Z,62.33
2019-05-13T21:03:22.776Z,63.84
2019-05-13T21:07:24.898Z,63.13
2019-05-13T21:11:27.312Z,62.82
2019-05-13T21:15:31.580Z,63.63
2019-05-13T21:19:39.121Z,62.94
2019-05-13T21:23:37.724Z,62.72
2019-05-13T21:27:41.978Z,62.67
2019-05-13T21:31:44.633Z,62.55
2019-05-13T21:35:46.757Z,62.78
2019-05-13T21:39:48.942Z,64.13
2019-05-13T21:43:52.068Z,63.84
2019-05-13T21:47:54.267Z,64.17
2019-05-13T21:51:56.413Z,64.34
2019-05-13T21:55:58.654Z,64.73
2019-05-13T22:00:02.039Z,64.22
2019-05-13T22:04:05.836Z,65.46
2019-05-13T22:08:08.073Z,64.21
2019-05-13T22:12:10.200Z,64.96
2019-05-13T22:16:12.336Z,64.93
2019-05-13T22:20:14.634Z,65.48
2019-05-13T22:24:16.796Z,64.98
2019-05-13T22:28:19.043Z,64.80
2019-05-13T22:32:22.020Z,66.01
2019-05-13T22:36:24.357Z,65.19
2019-05-13T22:40:26.528Z,65.00
2019-05-13T22:44:28.784Z,65.35
2019-05-13T22:48:31.781Z,65.44
2019-05-13T22:52:34.228Z,65.43
2019-05-13T22:56:36.665Z,66.00
2019-05-13T23:00:38.830Z,66.67
2019-05-13T23:04:43.511Z,66.29
2019-05-13T23:08:45.546Z,66.00
2019-05-13T23:12:47.759Z,66.19
2019-05-13T23:16:50.001Z,66.41
2019-05-13T23:20:52.218Z,66.40
2019-05-13T23:24:54.647Z,66.10
2019-05-13T23:28:57.030Z,65.71
2019-05-13T23:32:59.325Z,66.10
2019-05-13T23:37:03.061Z,66.39
2019-05-13T23:41:05.330Z,66.26
2019-05-13T23:45:08.142Z,66.12
2019-05-13T23:49:11.819Z,66.32
2019-05-13T23:53:14.307Z,66.07
2019-05-13T23:57:17.832Z,66.61
